Main page
METAR-TAF:

METAR-TAF

Airports :

West Memphis Municipal Airport

West Memphis, Arkansas, United States

latitude: 35-08N, longitude: 090-14W, elevation: 213 ft

Current weather observation

The report was made 34 minutes ago, at 06:53 UTC
Calm wind
Temperature 43°F
Humidity 81%
Pressure 30.22 in. Hg
Visibility: 10 miles
Clear sky

METAR: KAWM 220653Z AUTO 00000KT 10SM CLR 06/03 A3022 RMK AO2 SLP233 T00560033

Time: 02:27 (07:27 UTC)


TAF: missing

Weather observations and forecasts of more than 4000 airports (METAR and TAF reports).

The available stations are represented by yellow and red dots on the map.

Hover mouse over dot to see the name of the station.

Then click to see weather observations and forecasts.

To change the map : click on the green buttons with a black cross to zoom in, on the green button with a dash to zoom out, or on the green arrows for adjacent maps.


METAR-TAF: